Time;durP1;ratioP1;P1;durP2;ratioP2;P2;SDS_P1;SDS_P2;PMS_P1;PMS_P2;Temp;Humidity;BMP_temperature;BMP_pressure;BME280_temperature;BME280_humidity;BME280_pressure;Samples;Min_cycle;Max_cycle;Signal;HPM_P1;HPM_P2
2022/06/19 00:00:00;;;;;;;16.17;3.85;;;;;;;14.49;95.61;156161.56;4955431;28;20034;-74
2022/06/19 00:02:27;;;;;;;12.88;3.58;;;;;;;14.39;99.17;156137.09;4938623;28;20492;-72
2022/06/19 00:04:55;;;;;;;15.40;3.60;;;;;;;14.41;98.10;156143.56;4963457;28;20073;-74
2022/06/19 00:07:22;;;;;;;18.48;4.03;;;;;;;14.48;96.43;156160.25;4971523;28;20061;-74
2022/06/19 00:09:48;;;;;;;16.27;3.90;;;;;;;14.47;98.06;156156.44;4973051;28;20073;-74
2022/06/19 00:12:15;;;;;;;17.95;3.83;;;;;;;14.35;99.53;156126.81;4984446;28;20038;-73
2022/06/19 00:14:41;;;;;;;16.50;3.20;;;;;;;14.32;97.38;156119.13;4990517;28;20597;-73
2022/06/19 00:17:07;;;;;;;15.10;3.83;;;;;;;14.33;98.95;156121.69;4971040;28;20046;-73
2022/06/19 00:19:33;;;;;;;13.60;3.72;;;;;;;14.34;97.77;156124.28;4971010;28;20026;-74
2022/06/19 00:21:59;;;;;;;14.90;3.60;;;;;;;14.30;99.65;156115.28;4959923;28;20062;-74
2022/06/19 00:24:24;;;;;;;16.65;3.00;;;;;;;14.30;99.40;156115.28;4951024;28;20057;-74
2022/06/19 00:26:50;;;;;;;19.15;3.40;;;;;;;14.25;100.00;156101.13;4958062;28;20038;-74
2022/06/19 00:29:15;;;;;;;22.30;3.80;;;;;;;14.21;100.00;156093.41;5007783;28;20085;-74
2022/06/19 00:31:41;;;;;;;18.58;3.58;;;;;;;14.32;98.31;156120.41;4972771;28;20290;-73
2022/06/19 00:34:08;;;;;;;16.48;3.08;;;;;;;14.27;98.51;156107.53;4992637;28;20153;-74
2022/06/19 00:36:34;;;;;;;14.60;3.20;;;;;;;14.25;98.05;156102.41;4982232;28;20116;-74
2022/06/19 00:38:59;;;;;;;16.13;3.03;;;;;;;14.18;98.47;156084.38;4950098;28;20664;-74
2022/06/19 00:41:32;;;;;;;21.90;3.92;;;;;;;14.10;98.86;156065.09;4956453;28;20041;-74
2022/06/19 00:44:05;;;;;;;16.02;2.97;;;;;;;14.02;99.34;156044.56;4982051;28;20072;-74
2022/06/19 00:46:42;;;;;;;16.20;3.67;;;;;;;13.88;100.00;156009.84;4983520;28;20049;-74
2022/06/19 00:49:11;;;;;;;16.60;3.05;;;;;;;13.83;100.00;155998.25;4954091;28;20404;-75
2022/06/19 00:51:37;;;;;;;21.05;3.80;;;;;;;13.71;100.00;155966.13;4973501;28;20042;-74
2022/06/19 00:54:04;;;;;;;20.63;3.58;;;;;;;13.70;100.00;155963.56;4982962;28;20030;-74
2022/06/19 00:56:30;;;;;;;21.25;3.08;;;;;;;13.67;100.00;155957.13;4978991;28;20042;-74
2022/06/19 00:58:56;;;;;;;14.60;3.10;;;;;;;13.69;100.00;155960.97;4946648;28;20042;-74
2022/06/19 01:01:23;;;;;;;14.90;2.65;;;;;;;13.65;100.00;155950.69;4985910;28;20049;-74
2022/06/19 01:03:55;;;;;;;17.13;3.33;;;;;;;13.62;100.00;155945.56;4953237;28;20116;-74
2022/06/19 01:06:22;;;;;;;21.88;3.42;;;;;;;13.56;100.00;155928.84;4974415;28;20046;-74
2022/06/19 01:08:48;;;;;;;18.23;3.08;;;;;;;13.57;100.00;155931.44;4965954;28;20096;-73
2022/06/19 01:11:15;;;;;;;19.73;3.35;;;;;;;13.48;100.00;155908.28;4953634;28;20046;-74
2022/06/19 01:13:42;;;;;;;21.08;3.55;;;;;;;13.44;100.00;155899.28;4973311;28;20061;-74
2022/06/19 01:16:08;;;;;;;22.52;3.83;;;;;;;13.47;100.00;155907.00;4963279;28;20050;-74
2022/06/19 01:18:36;;;;;;;18.45;3.17;;;;;;;13.33;100.00;155871.00;4975668;28;20038;-74
2022/06/19 01:21:20;;;;;;;19.30;3.70;;;;;;;13.31;100.00;155865.88;4943190;28;20798;-72
2022/06/19 01:23:52;;;;;;;19.30;3.00;;;;;;;13.31;100.00;155865.88;4963434;28;20034;-73
2022/06/19 01:26:20;;;;;;;17.60;3.22;;;;;;;13.26;100.00;155854.28;4975199;28;20047;-73
2022/06/19 01:28:45;;;;;;;17.70;3.35;;;;;;;13.17;100.00;155831.16;4970803;28;20038;-74
2022/06/19 01:31:17;;;;;;;23.17;3.40;;;;;;;13.14;100.00;155824.69;4968940;28;20496;-73
2022/06/19 01:33:51;;;;;;;21.58;3.47;;;;;;;13.18;100.00;155833.69;4966323;28;20140;-75
2022/06/19 01:36:21;;;;;;;20.15;3.15;;;;;;;13.18;100.00;155834.97;4983667;28;20381;-74
2022/06/19 01:38:50;;;;;;;18.02;3.45;;;;;;;13.17;100.00;155832.41;4969751;28;20180;-73
2022/06/19 01:41:22;;;;;;;24.70;4.32;;;;;;;13.09;100.00;155811.88;4971301;28;20488;-73
2022/06/19 01:43:48;;;;;;;22.65;3.90;;;;;;;13.13;100.00;155820.81;4991669;28;20026;-74
2022/06/19 01:46:17;;;;;;;20.33;3.67;;;;;;;13.14;100.00;155823.41;4974810;28;20514;-74
2022/06/19 01:48:44;;;;;;;20.48;3.35;;;;;;;13.04;100.00;155799.00;4960194;28;20134;-74
2022/06/19 01:51:10;;;;;;;17.90;3.05;;;;;;;13.10;100.00;155814.41;4974871;28;20081;-74
2022/06/19 01:53:43;;;;;;;21.75;3.35;;;;;;;12.99;100.00;155787.41;4983273;28;20053;-74
2022/06/19 01:56:10;;;;;;;17.95;3.47;;;;;;;13.02;100.00;155795.16;4964695;28;20045;-73
2022/06/19 01:58:40;;;;;;;27.20;4.07;;;;;;;12.98;100.00;155784.88;4974154;28;20108;-74
2022/06/19 02:01:07;;;;;;;21.15;3.75;;;;;;;12.92;100.00;155768.16;4933581;28;20089;-74
2022/06/19 02:03:45;;;;;;;25.48;3.70;;;;;;;12.90;100.00;155764.28;4946414;28;20026;-73
2022/06/19 02:06:15;;;;;;;22.38;3.42;;;;;;;12.85;100.00;155752.75;4978260;28;20500;-74
2022/06/19 02:08:43;;;;;;;24.33;3.60;;;;;;;12.95;100.00;155775.88;4976393;28;20044;-74
2022/06/19 02:11:11;;;;;;;22.10;3.42;;;;;;;12.95;100.00;155777.16;4979002;28;20575;-74
2022/06/19 02:13:38;;;;;;;19.92;3.50;;;;;;;13.03;100.00;155797.75;5001416;28;20106;-74
2022/06/19 02:16:08;;;;;;;15.73;3.42;;;;;;;13.03;100.00;155797.75;4948163;28;20073;-74
2022/06/19 02:18:38;;;;;;;25.73;3.88;;;;;;;13.17;100.00;155831.16;4966157;28;20034;-74
2022/06/19 02:21:06;;;;;;;20.00;3.35;;;;;;;13.21;100.00;155842.69;4973423;28;20057;-74
2022/06/19 02:23:37;;;;;;;20.98;4.03;;;;;;;13.25;100.00;155851.69;4986011;28;20037;-74
2022/06/19 02:26:07;;;;;;;28.40;3.72;;;;;;;13.28;100.00;155859.41;4956941;28;20109;-74
2022/06/19 02:28:36;;;;;;;18.75;4.07;;;;;;;13.22;100.00;155845.28;4990741;28;20056;-74
2022/06/19 02:31:03;;;;;;;24.58;3.47;;;;;;;13.28;100.00;155859.41;4981722;28;20039;-74
2022/06/19 02:33:33;;;;;;;26.77;4.03;;;;;;;13.25;100.00;155852.97;4964131;28;20129;-74
2022/06/19 02:35:59;;;;;;;23.48;4.45;;;;;;;13.28;100.00;155859.41;4950886;28;20027;-73
2022/06/19 02:38:24;;;;;;;23.83;3.53;;;;;;;13.27;100.00;155856.81;4990347;28;21621;-72
2022/06/19 02:41:11;;;;;;;20.45;3.15;;;;;;;13.16;100.00;155828.56;4961526;28;20041;-73
2022/06/19 02:43:37;;;;;;;24.65;3.50;;;;;;;13.06;100.00;155804.16;4967978;28;20033;-74
2022/06/19 02:46:07;;;;;;;23.92;3.88;;;;;;;13.05;100.00;155801.56;4965111;28;20082;-74
2022/06/19 02:48:33;;;;;;;25.80;3.78;;;;;;;13.04;100.00;155799.00;4976277;28;20152;-75
2022/06/19 02:51:02;;;;;;;26.25;4.03;;;;;;;13.12;100.00;155818.28;4975548;28;20515;-73
2022/06/19 02:53:29;;;;;;;23.52;3.75;;;;;;;13.11;100.00;155817.00;4979124;28;20034;-75
2022/06/19 02:55:55;;;;;;;22.95;4.22;;;;;;;13.17;100.00;155831.16;4955625;28;20046;-74
2022/06/19 02:58:22;;;;;;;26.30;3.38;;;;;;;13.06;100.00;155804.16;4984756;28;20049;-75
2022/06/19 03:00:50;;;;;;;22.08;4.20;;;;;;;13.08;100.00;155808.00;4966870;28;20039;-75
2022/06/19 03:03:18;;;;;;;22.42;3.60;;;;;;;13.04;100.00;155799.00;4978396;28;20038;-75
2022/06/19 03:05:44;;;;;;;22.13;3.35;;;;;;;13.08;100.00;155808.00;4952391;28;20053;-74
2022/06/19 03:08:09;;;;;;;20.02;3.95;;;;;;;13.15;100.00;155827.28;4946052;28;20042;-74
2022/06/19 03:10:36;;;;;;;19.48;3.78;;;;;;;13.16;100.00;155829.81;4963852;28;20450;-74
2022/06/19 03:13:02;;;;;;;25.00;3.42;;;;;;;13.20;100.00;155838.81;4980995;28;20057;-75
2022/06/19 03:15:28;;;;;;;20.58;3.53;;;;;;;13.22;100.00;155845.28;4982615;28;20034;-76
2022/06/19 03:17:54;;;;;;;20.00;3.53;;;;;;;13.19;100.00;155836.28;4949437;28;20128;-75
2022/06/19 03:20:24;;;;;;;19.52;3.22;;;;;;;13.17;100.00;155831.16;4973856;28;20102;-74
2022/06/19 03:22:50;;;;;;;23.42;3.33;;;;;;;13.13;100.00;155820.81;4996685;28;20041;-76
2022/06/19 03:25:15;;;;;;;30.33;3.85;;;;;;;13.14;100.00;155824.69;4984837;28;20038;-75
2022/06/19 03:27:41;;;;;;;24.77;3.92;;;;;;;13.17;100.00;155832.41;4954050;28;20079;-74
2022/06/19 03:30:07;;;;;;;20.67;3.22;;;;;;;13.11;100.00;155815.69;4953534;28;20488;-76
2022/06/19 03:32:33;;;;;;;28.63;4.03;;;;;;;13.10;100.00;155814.41;4956379;28;20475;-75
2022/06/19 03:34:59;;;;;;;19.88;3.58;;;;;;;13.28;100.00;155858.09;4958400;28;20062;-73
2022/06/19 03:37:24;;;;;;;25.65;3.65;;;;;;;13.27;100.00;155855.56;4946910;28;20030;-74
2022/06/19 03:39:51;;;;;;;28.88;3.97;;;;;;;13.42;100.00;155894.16;4939790;28;20042;-73
2022/06/19 03:42:16;;;;;;;26.52;4.45;;;;;;;13.37;100.00;155881.28;4980202;28;20041;-74
2022/06/19 03:44:42;;;;;;;25.17;4.22;;;;;;;13.44;100.00;155899.28;4961816;28;20034;-75
2022/06/19 03:47:08;;;;;;;22.63;4.00;;;;;;;13.29;100.00;155860.69;4960696;28;20042;-73
2022/06/19 03:49:34;;;;;;;22.08;3.75;;;;;;;13.38;100.00;155885.16;5007596;28;20110;-74
2022/06/19 03:52:00;;;;;;;22.05;3.78;;;;;;;13.49;100.00;155910.88;4966016;28;20088;-75
2022/06/19 03:54:28;;;;;;;23.67;3.80;;;;;;;13.50;100.00;155914.69;4966652;28;20033;-75
2022/06/19 03:56:54;;;;;;;20.77;3.65;;;;;;;13.52;100.00;155919.84;4978513;28;20038;-76
2022/06/19 03:59:20;;;;;;;21.38;3.67;;;;;;;13.65;100.00;155951.97;4984645;28;20061;-75
2022/06/19 04:01:45;;;;;;;21.70;4.15;;;;;;;13.66;100.00;155953.28;4968232;28;20881;-73
2022/06/19 04:04:11;;;;;;;27.02;3.78;;;;;;;13.70;100.00;155963.56;4974914;28;20053;-75
2022/06/19 04:06:40;;;;;;;22.52;3.85;;;;;;;13.76;100.00;155980.25;4969189;28;20475;-75
2022/06/19 04:09:10;;;;;;;29.10;4.00;;;;;;;13.80;100.00;155990.53;4994779;28;20038;-76
2022/06/19 04:11:36;;;;;;;27.15;3.95;;;;;;;13.82;100.00;155994.41;4979061;28;20341;-72
2022/06/19 04:14:02;;;;;;;21.70;4.55;;;;;;;13.78;100.00;155984.13;4973314;28;20044;-75
2022/06/19 04:16:31;;;;;;;25.40;3.83;;;;;;;13.79;100.00;155986.72;4987420;28;20038;-74
2022/06/19 04:18:58;;;;;;;20.85;3.92;;;;;;;13.82;100.00;155994.41;4977661;28;20038;-75
2022/06/19 04:21:30;;;;;;;27.92;3.85;;;;;;;13.82;100.00;155994.41;4947123;28;20125;-73
2022/06/19 04:23:58;;;;;;;23.15;3.40;;;;;;;13.82;100.00;155994.41;4951796;28;20034;-74
2022/06/19 04:26:28;;;;;;;21.70;4.28;;;;;;;13.90;100.00;156013.69;4975341;28;20113;-74
2022/06/19 04:28:54;;;;;;;22.88;3.55;;;;;;;13.98;100.00;156034.28;4985125;28;20410;-74
2022/06/19 04:31:20;;;;;;;23.20;3.90;;;;;;;14.02;100.00;156044.56;4987597;28;20034;-72
2022/06/19 04:33:46;;;;;;;28.00;3.97;;;;;;;14.00;100.00;156040.69;4966457;28;20053;-73
2022/06/19 04:36:15;;;;;;;26.27;3.83;;;;;;;14.08;100.00;156059.97;4967954;28;20035;-73
2022/06/19 04:38:43;;;;;;;24.38;4.35;;;;;;;14.15;100.00;156077.97;4973823;28;20037;-74
2022/06/19 04:41:22;;;;;;;24.52;3.90;;;;;;;14.10;100.00;156065.09;4979420;28;20097;-73
2022/06/19 04:43:50;;;;;;;25.00;3.45;;;;;;;14.12;100.00;156070.25;4973427;28;20046;-74
2022/06/19 04:46:16;;;;;;;24.13;3.72;;;;;;;14.11;100.00;156066.38;4966876;28;20046;-74
2022/06/19 04:48:42;;;;;;;21.45;3.53;;;;;;;14.15;100.00;156077.97;4949062;28;20042;-73
2022/06/19 04:51:08;;;;;;;24.90;3.60;;;;;;;14.22;100.00;156094.66;4973437;28;20455;-74
2022/06/19 04:53:34;;;;;;;22.05;3.47;;;;;;;14.32;100.00;156119.13;4964310;28;20066;-74
2022/06/19 04:56:01;;;;;;;24.70;3.78;;;;;;;14.28;100.00;156110.13;4958272;28;20518;-73
2022/06/19 04:58:27;;;;;;;19.27;2.95;;;;;;;14.20;100.00;156089.53;4970607;28;20492;-74
2022/06/19 05:00:53;;;;;;;25.17;3.60;;;;;;;14.23;100.00;156097.25;4993243;28;20038;-74
2022/06/19 05:03:21;;;;;;;25.13;3.92;;;;;;;14.25;100.00;156102.41;4961600;28;20842;-74
2022/06/19 05:05:47;;;;;;;22.17;3.80;;;;;;;14.37;100.00;156133.28;4943644;28;20467;-75
2022/06/19 05:08:14;;;;;;;25.52;4.18;;;;;;;14.39;100.00;156137.09;4975149;28;20065;-73
2022/06/19 05:10:41;;;;;;;19.58;3.33;;;;;;;14.28;100.00;156108.81;4972329;28;20101;-74
2022/06/19 05:13:15;;;;;;;23.77;3.88;;;;;;;14.25;100.00;156102.41;4991424;28;20049;-73
2022/06/19 05:15:41;;;;;;;24.63;3.85;;;;;;;14.12;100.00;156068.97;4964163;28;20038;-74
2022/06/19 05:18:07;;;;;;;25.88;4.30;;;;;;;14.23;100.00;156097.25;4949416;28;20046;-73
2022/06/19 05:20:33;;;;;;;24.08;3.78;;;;;;;14.35;100.00;156126.81;4984945;28;20042;-74
2022/06/19 05:22:58;;;;;;;21.42;3.75;;;;;;;14.44;100.00;156148.69;4945969;28;20114;-74
2022/06/19 05:25:24;;;;;;;115.35;8.85;;;;;;;14.65;100.00;156202.75;4959952;28;20053;-74
2022/06/19 05:27:50;;;;;;;24.67;3.53;;;;;;;14.75;100.00;156228.50;4962167;28;20034;-75
2022/06/19 05:30:16;;;;;;;19.05;3.20;;;;;;;14.88;100.00;156260.66;4961817;28;20042;-73
2022/06/19 05:32:41;;;;;;;22.35;3.67;;;;;;;14.89;100.00;156263.22;4936326;28;20046;-74
2022/06/19 05:35:07;;;;;;;15.38;3.20;;;;;;;14.97;100.00;156282.50;4986865;28;20040;-74
2022/06/19 05:37:33;;;;;;;19.27;3.55;;;;;;;15.10;100.00;156315.94;4956997;28;20050;-75
2022/06/19 05:39:58;;;;;;;21.73;3.40;;;;;;;15.10;100.00;156315.94;4949266;28;20075;-74
2022/06/19 05:42:26;;;;;;;17.88;3.28;;;;;;;15.06;100.00;156305.66;4977277;28;20065;-74
2022/06/19 05:44:51;;;;;;;13.95;3.05;;;;;;;15.10;100.00;156315.94;4993413;28;20036;-73
2022/06/19 05:47:17;;;;;;;26.50;3.50;;;;;;;15.19;100.00;156337.84;4969683;28;20425;-74
2022/06/19 05:49:43;;;;;;;22.23;3.72;;;;;;;15.12;100.00;156319.81;4965200;28;20050;-74
2022/06/19 05:52:18;;;;;;;16.63;3.00;;;;;;;15.21;100.00;156342.97;4956493;28;20046;-74
2022/06/19 05:54:45;;;;;;;20.30;3.15;;;;;;;15.30;100.00;156364.88;4994459;28;20046;-74
2022/06/19 05:57:11;;;;;;;18.38;2.95;;;;;;;15.30;99.91;156366.13;4986291;28;20569;-75
2022/06/19 05:59:36;;;;;;;15.95;2.90;;;;;;;15.44;98.86;156399.59;4982738;28;20026;-74
2022/06/19 06:02:02;;;;;;;20.52;3.22;;;;;;;15.43;99.09;156397.03;4992942;28;20435;-74
2022/06/19 06:04:28;;;;;;;19.00;3.05;;;;;;;15.44;100.00;156399.59;4991524;28;20040;-73
2022/06/19 06:06:54;;;;;;;20.85;3.20;;;;;;;15.40;100.00;156390.56;4959736;28;20117;-74
2022/06/19 06:09:19;;;;;;;22.95;3.28;;;;;;;15.32;100.00;156370.00;4950623;28;20080;-74
2022/06/19 06:11:45;;;;;;;18.60;3.17;;;;;;;15.38;100.00;156386.72;4942663;28;20054;-74
2022/06/19 06:14:11;;;;;;;18.83;3.45;;;;;;;15.32;100.00;156370.00;4981032;28;20044;-75
2022/06/19 06:16:37;;;;;;;25.45;3.38;;;;;;;15.29;100.00;156363.53;4981800;28;20050;-74
2022/06/19 06:19:04;;;;;;;16.10;3.30;;;;;;;15.22;100.00;156344.25;4971789;28;20051;-73
2022/06/19 06:21:30;;;;;;;20.08;3.60;;;;;;;15.14;100.00;156324.97;4944066;28;20031;-73
2022/06/19 06:23:56;;;;;;;20.65;2.92;;;;;;;15.18;100.00;156336.56;4949767;28;20030;-74
2022/06/19 06:26:26;;;;;;;23.23;3.92;;;;;;;15.13;100.00;156322.41;4958900;28;20420;-73
2022/06/19 06:28:54;;;;;;;17.08;3.35;;;;;;;15.02;100.00;156295.38;4955225;28;20181;-73
2022/06/19 06:31:21;;;;;;;18.52;3.20;;;;;;;15.08;100.00;156309.53;4982937;28;20030;-73
2022/06/19 06:33:46;;;;;;;24.70;3.42;;;;;;;15.17;100.00;156332.69;4967155;28;20030;-73
2022/06/19 06:36:13;;;;;;;21.08;3.17;;;;;;;15.28;100.00;156359.72;4954820;28;20042;-73
2022/06/19 06:38:39;;;;;;;17.15;3.03;;;;;;;15.34;100.00;156376.44;4976314;28;20045;-73
2022/06/19 06:41:07;;;;;;;24.30;3.45;;;;;;;15.36;100.00;156380.28;4954449;28;20058;-74
2022/06/19 06:43:37;;;;;;;17.92;3.20;;;;;;;15.34;100.00;156376.44;4983400;28;20130;-73
2022/06/19 06:46:12;;;;;;;19.98;2.90;;;;;;;15.25;100.00;156352.00;4951062;28;20042;-73
2022/06/19 06:48:38;;;;;;;17.35;3.35;;;;;;;15.41;100.00;156393.19;4968241;28;20038;-72
2022/06/19 06:51:12;;;;;;;24.00;3.55;;;;;;;15.45;99.71;156403.47;4975245;28;20435;-73
2022/06/19 06:53:38;;;;;;;16.50;3.78;;;;;;;15.49;100.00;156413.75;4965721;28;20491;-75
2022/06/19 06:56:04;;;;;;;24.13;4.00;;;;;;;15.54;99.75;156425.34;4976068;28;20034;-72
2022/06/19 06:58:30;;;;;;;12.43;3.00;;;;;;;15.58;100.00;156436.91;4985140;28;20049;-73
2022/06/19 07:00:55;;;;;;;18.33;2.97;;;;;;;15.67;98.42;156458.81;4978904;28;20052;-75
2022/06/19 07:03:21;;;;;;;12.48;2.50;;;;;;;15.76;96.24;156482.03;4972076;28;20048;-73
2022/06/19 07:05:47;;;;;;;15.02;2.78;;;;;;;15.84;96.42;156501.31;4950129;28;20046;-73
2022/06/19 07:08:13;;;;;;;18.73;2.65;;;;;;;15.90;94.71;156516.75;4993818;28;20034;-73
2022/06/19 07:10:39;;;;;;;15.05;2.80;;;;;;;15.79;93.70;156488.44;4972818;28;20136;-73
2022/06/19 07:13:05;;;;;;;16.50;3.10;;;;;;;15.99;92.97;156538.63;4974778;28;20130;-74
2022/06/19 07:15:30;;;;;;;14.45;3.00;;;;;;;16.12;91.35;156570.81;4971647;28;20496;-73
2022/06/19 07:17:56;;;;;;;14.93;2.38;;;;;;;16.43;90.91;156649.34;4961585;28;20039;-72
2022/06/19 07:20:21;;;;;;;9.25;2.58;;;;;;;16.48;90.40;156662.25;4930668;28;20131;-74
2022/06/19 07:22:47;;;;;;;19.58;2.85;;;;;;;16.61;91.04;156693.13;4940357;28;20039;-76
2022/06/19 07:25:18;;;;;;;17.70;2.60;;;;;;;16.65;87.37;156704.72;4959629;28;20055;-72
2022/06/19 07:27:44;;;;;;;11.90;2.55;;;;;;;16.73;88.95;156725.31;4967566;28;20080;-74
2022/06/19 07:30:16;;;;;;;15.32;2.63;;;;;;;16.85;87.89;156754.97;4967204;28;20037;-73
2022/06/19 07:32:42;;;;;;;11.82;3.08;;;;;;;16.86;86.43;156756.28;4975653;28;20767;-72
2022/06/19 07:35:08;;;;;;;14.02;2.40;;;;;;;16.67;86.47;156708.56;4960421;28;20041;-74
2022/06/19 07:37:33;;;;;;;13.10;2.28;;;;;;;17.07;86.96;156810.38;4945143;28;20041;-73
2022/06/19 07:39:59;;;;;;;11.88;2.30;;;;;;;17.06;83.76;156806.50;4939059;28;20039;-75
2022/06/19 07:42:24;;;;;;;13.98;2.38;;;;;;;17.17;84.52;156834.84;4987631;28;20034;-72
2022/06/19 07:44:50;;;;;;;13.70;2.38;;;;;;;17.28;82.76;156861.91;4965031;28;20108;-73
2022/06/19 07:50:09;;;;;;;8.52;2.20;;;;;;;17.22;81.81;156846.44;4985881;28;20038;-73
2022/06/19 07:52:40;;;;;;;12.63;2.10;;;;;;;17.59;80.71;156939.16;4975550;28;20031;-73
2022/06/19 07:55:07;;;;;;;15.45;2.33;;;;;;;17.76;78.12;156982.97;4965887;28;20030;-73
2022/06/19 07:57:33;;;;;;;12.32;1.88;;;;;;;17.96;75.60;157033.28;4985679;28;20069;-74
2022/06/19 07:59:59;;;;;;;11.45;2.00;;;;;;;17.99;75.94;157039.72;4982462;28;20194;-74
2022/06/19 08:02:25;;;;;;;9.85;1.80;;;;;;;17.57;75.14;156934.03;4974319;28;20851;-75
2022/06/19 08:04:51;;;;;;;17.45;2.10;;;;;;;17.35;78.74;156879.94;4980967;28;20093;-74
2022/06/19 08:07:18;;;;;;;8.18;2.17;;;;;;;17.28;76.46;156861.91;4976134;28;20065;-74
2022/06/19 08:09:45;;;;;;;9.88;2.30;;;;;;;17.44;76.46;156901.81;4978523;28;20046;-74
2022/06/19 08:12:11;;;;;;;12.98;2.15;;;;;;;17.80;80.05;156992.00;4972973;28;20042;-73
2022/06/19 08:14:37;;;;;;;7.75;1.77;;;;;;;17.94;74.25;157026.88;4985924;28;20218;-73
2022/06/19 08:17:03;;;;;;;7.18;1.80;;;;;;;18.00;71.23;157042.31;4966290;28;20042;-73
2022/06/19 08:19:29;;;;;;;11.40;1.75;;;;;;;18.00;69.78;157043.59;4950543;28;20188;-73
2022/06/19 08:21:54;;;;;;;9.05;1.75;;;;;;;18.25;68.02;157106.78;4977157;28;20570;-74
2022/06/19 08:24:21;;;;;;;6.25;1.45;;;;;;;18.37;68.03;157136.41;4964620;28;20035;-74
2022/06/19 08:26:49;;;;;;;9.25;1.60;;;;;;;18.46;71.91;157159.59;4952399;28;20061;-74
2022/06/19 08:29:15;;;;;;;6.45;1.48;;;;;;;18.62;67.67;157199.53;4972601;28;20034;-73
2022/06/19 08:31:41;;;;;;;5.03;1.20;;;;;;;18.85;64.07;157257.63;4976473;28;20034;-74
2022/06/19 08:34:07;;;;;;;4.25;1.15;;;;;;;18.85;62.84;157257.63;4965601;28;20118;-74
2022/06/19 08:36:36;;;;;;;7.80;1.30;;;;;;;18.70;65.46;157217.59;4989208;28;20042;-73
2022/06/19 08:39:06;;;;;;;6.03;1.25;;;;;;;18.59;64.46;157190.53;4981521;28;20325;-72
2022/06/19 08:41:53;;;;;;;6.40;1.45;;;;;;;18.56;60.84;157184.09;4955128;28;20562;-73
2022/06/19 08:44:40;;;;;;;3.97;1.25;;;;;;;18.59;65.61;157191.84;4976164;28;20038;-72
2022/06/19 08:47:28;;;;;;;7.82;1.67;;;;;;;18.53;70.51;157176.34;4952825;28;20516;-72
2022/06/19 08:50:20;;;;;;;7.75;1.50;;;;;;;18.42;64.37;157147.97;4991137;28;20041;-74
2022/06/19 08:52:56;;;;;;;6.00;1.10;;;;;;;18.25;67.76;157105.44;4982519;28;20084;-74
2022/06/19 08:55:48;;;;;;;4.85;1.20;;;;;;;18.33;68.87;157126.09;4966803;28;20054;-74
2022/06/19 08:58:25;;;;;;;7.10;1.50;;;;;;;18.54;65.96;157178.94;4977167;28;20058;-74
2022/06/19 09:01:01;;;;;;;3.08;1.02;;;;;;;18.93;63.30;157276.97;4971989;28;20042;-74
2022/06/19 09:07:06;;;;;;;7.38;1.50;;;;;;;19.03;58.77;157301.47;4973175;28;20039;-75
2022/06/19 09:10:10;;;;;;;7.95;1.38;;;;;;;19.04;59.40;157304.03;4980444;28;20042;-73
2022/06/19 09:12:48;;;;;;;7.65;1.20;;;;;;;19.65;62.87;157457.50;4986633;28;20164;-74
2022/06/19 09:15:17;;;;;;;6.78;1.42;;;;;;;19.83;57.82;157504.00;4996946;28;20045;-74
2022/06/19 09:17:55;;;;;;;6.95;1.30;;;;;;;19.89;57.28;157516.88;4955353;28;20150;-73
2022/06/19 09:20:37;;;;;;;4.72;1.02;;;;;;;19.72;54.52;157475.63;4970110;28;20022;-73
2022/06/19 09:23:30;;;;;;;4.47;1.38;;;;;;;20.06;57.48;157559.44;4954966;28;20085;-73
2022/06/19 09:26:12;;;;;;;5.38;1.17;;;;;;;20.54;53.89;157682.03;4962042;28;20070;-73
2022/06/19 09:29:01;;;;;;;8.50;1.25;;;;;;;20.77;55.84;157740.13;4991540;28;20030;-73
2022/06/19 09:31:45;;;;;;;10.95;1.10;;;;;;;20.70;54.05;157722.09;4963565;28;20181;-74
2022/06/19 09:34:18;;;;;;;4.88;1.52;;;;;;;20.47;53.58;157662.66;4981338;28;20038;-73
2022/06/19 09:36:49;;;;;;;4.78;1.10;;;;;;;20.49;52.04;157667.84;4983986;28;20057;-74
2022/06/19 09:39:26;;;;;;;3.47;0.85;;;;;;;20.88;56.47;157765.97;4944254;28;20370;-73
2022/06/19 09:42:05;;;;;;;4.45;1.27;;;;;;;20.61;56.92;157700.16;4972548;28;20550;-74
2022/06/19 09:44:49;;;;;;;3.10;1.38;;;;;;;20.41;55.47;157648.47;4961783;28;20053;-74
2022/06/19 09:47:32;;;;;;;4.47;1.10;;;;;;;20.43;56.79;157654.91;4953061;28;20035;-74
2022/06/19 09:50:18;;;;;;;4.50;1.13;;;;;;;20.49;55.72;157669.09;4966797;28;20457;-74
2022/06/19 09:52:51;;;;;;;4.88;1.42;;;;;;;20.46;56.94;157661.41;4968375;28;20046;-74
2022/06/19 09:55:50;;;;;;;7.63;1.10;;;;;;;20.39;55.10;157643.31;4965974;28;20034;-72
2022/06/19 09:58:34;;;;;;;6.13;1.25;;;;;;;20.21;59.91;157598.13;4965306;28;20590;-72
2022/06/19 10:01:03;;;;;;;5.43;1.20;;;;;;;19.93;59.22;157528.50;4979602;28;20042;-72
2022/06/19 10:03:39;;;;;;;5.57;1.23;;;;;;;19.49;62.23;157417.50;4958724;28;20712;-74
2022/06/19 10:06:14;;;;;;;8.38;1.75;;;;;;;19.36;67.45;157385.25;4979611;28;20060;-75
2022/06/19 10:08:46;;;;;;;7.15;1.50;;;;;;;19.44;67.16;157405.91;4982130;28;20038;-73
2022/06/19 10:11:17;;;;;;;7.65;1.63;;;;;;;19.83;70.13;157504.00;4962338;28;20503;-74
2022/06/19 10:14:00;;;;;;;7.90;1.48;;;;;;;19.75;67.55;157483.34;4988671;28;20038;-74
2022/06/19 10:16:48;;;;;;;4.63;1.40;;;;;;;19.68;68.32;157465.22;4974764;28;20034;-74
2022/06/19 10:19:19;;;;;;;5.93;1.38;;;;;;;19.63;71.30;157453.63;4971587;28;20126;-73
2022/06/19 10:22:13;;;;;;;8.07;1.52;;;;;;;19.73;72.61;157476.91;4999441;28;20038;-74
2022/06/19 10:25:01;;;;;;;5.53;1.30;;;;;;;19.28;69.14;157364.63;4974330;28;20045;-73
2022/06/19 10:27:39;;;;;;;6.20;1.50;;;;;;;19.22;67.69;157350.44;4971598;28;20050;-72
2022/06/19 10:30:16;;;;;;;12.60;1.77;;;;;;;19.05;71.63;157307.91;4976824;28;20054;-74
2022/06/19 10:33:09;;;;;;;8.48;1.80;;;;;;;18.59;76.34;157190.53;4978672;28;20991;-75
2022/06/19 10:35:43;;;;;;;9.40;1.88;;;;;;;18.41;81.04;157145.44;4934157;28;20039;-74
2022/06/19 10:38:40;;;;;;;9.95;2.05;;;;;;;18.11;85.11;157070.66;4969261;28;20093;-74
2022/06/19 10:44:25;;;;;;;;;;;;;;;17.63;88.89;156950.78;4972095;28;21028;-73
2022/06/19 10:47:20;;;;;;;10.85;2.30;;;;;;;17.41;89.01;156895.38;4973525;28;19936;-74
2022/06/19 10:50:21;;;;;;;10.70;2.58;;;;;;;17.34;90.20;156877.34;4984200;28;20060;-74
2022/06/19 10:52:59;;;;;;;7.63;2.17;;;;;;;17.00;90.00;156792.31;4976141;28;20532;-75
2022/06/19 10:55:53;;;;;;;6.70;1.92;;;;;;;17.06;91.16;156806.50;4962884;28;20085;-74
2022/06/19 10:58:20;;;;;;;11.63;2.22;;;;;;;16.98;89.84;156787.19;4986947;28;20060;-75
2022/06/19 11:00:53;;;;;;;13.77;2.40;;;;;;;17.05;90.82;156805.22;4973603;28;20132;-74
2022/06/19 11:06:36;;;;;;;11.35;2.28;;;;;;;17.49;88.25;156914.69;4955537;28;20047;-75
2022/06/19 11:09:10;;;;;;;15.68;4.90;;;;;;;17.65;88.04;156954.63;4957468;28;20512;-74
2022/06/19 11:11:38;;;;;;;10.90;2.35;;;;;;;17.80;85.88;156992.00;4948150;28;20046;-74
2022/06/19 11:14:08;;;;;;;10.50;3.40;;;;;;;18.02;86.53;157047.47;4979959;28;20237;-74
2022/06/19 11:16:52;;;;;;;7.97;2.00;;;;;;;18.29;84.54;157117.06;4977637;28;20035;-72
2022/06/19 11:19:41;;;;;;;8.65;1.98;;;;;;;18.47;86.38;157160.88;4969693;28;20038;-74
2022/06/19 11:22:27;;;;;;;10.05;2.00;;;;;;;18.35;82.11;157131.25;4958866;28;20034;-73
2022/06/19 11:24:53;;;;;;;13.70;2.58;;;;;;;18.44;85.84;157153.13;4954842;28;20050;-74
2022/06/19 11:27:23;;;;;;;12.77;2.50;;;;;;;18.44;86.93;157153.13;4948345;28;20042;-73
2022/06/19 11:29:53;;;;;;;9.25;2.08;;;;;;;18.49;86.00;157167.31;4962396;28;20046;-73
2022/06/19 11:32:21;;;;;;;10.07;1.95;;;;;;;18.58;85.85;157189.25;4973824;28;20057;-74
2022/06/19 11:35:06;;;;;;;11.40;2.60;;;;;;;18.47;84.48;157162.16;4968712;28;20073;-73
2022/06/19 11:37:34;;;;;;;10.25;2.17;;;;;;;18.42;82.41;157149.31;4972660;28;20046;-73
2022/06/19 11:40:00;;;;;;;9.48;2.20;;;;;;;18.50;84.55;157168.63;4977854;28;20054;-74